createdAt,value
2023-05-06T00:00:36.131Z,94.17
2023-05-06T00:03:04.588Z,94.71
2023-05-06T00:05:33.096Z,94.50
2023-05-06T00:08:02.804Z,94.49
2023-05-06T00:10:31.182Z,94.60
2023-05-06T00:12:59.542Z,94.25
2023-05-06T00:15:30.088Z,94.40
2023-05-06T00:18:00.000Z,94.65
2023-05-06T00:20:29.247Z,94.20
2023-05-06T00:23:00.109Z,94.84
2023-05-06T00:25:30.088Z,94.77
2023-05-06T00:27:58.740Z,94.63
2023-05-06T00:30:28.037Z,94.47
2023-05-06T00:32:56.904Z,95.17
2023-05-06T00:35:25.785Z,94.85
2023-05-06T00:37:59.223Z,94.26
2023-05-06T00:40:29.426Z,94.38
2023-05-06T00:42:58.124Z,94.36
2023-05-06T00:45:27.634Z,94.33
2023-05-06T00:47:57.079Z,94.53
2023-05-06T00:50:28.272Z,94.60
2023-05-06T00:52:58.382Z,94.46
2023-05-06T00:55:26.855Z,94.16
2023-05-06T00:57:56.909Z,94.48
2023-05-06T01:00:25.787Z,94.67
2023-05-06T01:02:54.266Z,94.68
2023-05-06T01:05:25.701Z,94.66
2023-05-06T01:08:02.383Z,94.95
2023-05-06T01:10:40.169Z,94.89
2023-05-06T01:13:16.406Z,94.69
2023-05-06T01:15:47.932Z,94.81
2023-05-06T01:18:19.206Z,94.53
2023-05-06T01:20:51.502Z,94.72
2023-05-06T01:23:21.949Z,94.89
2023-05-06T01:25:50.773Z,94.92
2023-05-06T01:28:19.629Z,94.93
2023-05-06T01:30:59.070Z,94.90
2023-05-06T01:33:36.175Z,94.72
2023-05-06T01:36:15.841Z,94.87
2023-05-06T01:38:54.996Z,95.17
2023-05-06T01:41:27.030Z,95.04
2023-05-06T01:43:56.024Z,94.93
2023-05-06T01:46:27.417Z,94.97
2023-05-06T01:48:58.286Z,95.02
2023-05-06T01:51:27.432Z,95.07
2023-05-06T01:53:57.478Z,95.09
2023-05-06T01:56:27.123Z,95.29
2023-05-06T01:58:55.988Z,95.10
2023-05-06T02:01:25.829Z,95.22
2023-05-06T02:03:54.579Z,94.79
2023-05-06T02:06:23.307Z,94.90
2023-05-06T02:08:52.657Z,94.91
2023-05-06T02:11:23.273Z,94.76
2023-05-06T02:13:52.401Z,94.56
2023-05-06T02:16:22.023Z,94.62
2023-05-06T02:18:50.980Z,94.65
2023-05-06T02:21:19.895Z,94.55
2023-05-06T02:23:49.826Z,94.55
2023-05-06T02:26:18.637Z,94.85
2023-05-06T02:28:48.954Z,94.95
2023-05-06T02:31:17.864Z,94.36
2023-05-06T02:33:47.262Z,94.47
2023-05-06T02:36:15.734Z,94.72
2023-05-06T02:38:44.282Z,94.75
2023-05-06T02:41:12.862Z,94.47
2023-05-06T02:43:41.251Z,94.29
2023-05-06T02:46:11.597Z,94.94
2023-05-06T02:48:40.003Z,94.13
2023-05-06T02:51:08.421Z,94.57
2023-05-06T02:53:36.812Z,94.58
2023-05-06T02:56:06.007Z,95.21
2023-05-06T02:58:34.429Z,94.51
2023-05-06T03:01:02.819Z,94.73
2023-05-06T03:03:32.677Z,94.62
2023-05-06T03:06:01.039Z,94.75
2023-05-06T03:08:29.809Z,94.52
2023-05-06T03:10:58.210Z,94.94
2023-05-06T03:13:27.184Z,94.78
2023-05-06T03:15:56.509Z,94.55
2023-05-06T03:18:25.082Z,94.54
2023-05-06T03:20:54.826Z,94.40
2023-05-06T03:23:23.423Z,94.92
2023-05-06T03:25:52.474Z,95.47
2023-05-06T03:28:20.962Z,95.30
2023-05-06T03:30:49.724Z,95.96
2023-05-06T03:33:18.190Z,95.89
2023-05-06T03:35:46.684Z,95.32
2023-05-06T03:38:16.426Z,95.48
2023-05-06T03:40:44.909Z,95.60
2023-05-06T03:43:13.251Z,96.07
2023-05-06T03:45:41.600Z,95.85
2023-05-06T03:48:10.556Z,95.66
2023-05-06T03:50:39.258Z,95.93
2023-05-06T03:53:07.738Z,95.79
2023-05-06T03:55:37.752Z,95.29
2023-05-06T03:58:06.197Z,95.37
2023-05-06T04:00:34.597Z,95.33
2023-05-06T04:03:03.061Z,95.51
2023-05-06T04:05:31.881Z,96.07
2023-05-06T04:08:00.496Z,95.96
2023-05-06T04:10:32.925Z,96.09
2023-05-06T04:13:02.700Z,95.78
2023-05-06T04:15:32.876Z,96.15
2023-05-06T04:18:01.562Z,95.94
2023-05-06T04:20:30.229Z,95.99
2023-05-06T04:22:58.670Z,96.28
2023-05-06T04:25:28.030Z,96.44
2023-05-06T04:27:57.067Z,95.97
2023-05-06T04:30:27.721Z,96.66
2023-05-06T04:32:56.424Z,96.68
2023-05-06T04:35:25.398Z,96.84
2023-05-06T04:37:53.873Z,97.32
2023-05-06T04:40:23.993Z,97.11
2023-05-06T04:42:52.779Z,97.54
2023-05-06T04:45:22.341Z,97.41
2023-05-06T04:47:53.006Z,97.43
2023-05-06T04:50:22.504Z,97.76
2023-05-06T04:52:51.103Z,97.99
2023-05-06T04:55:20.085Z,98.12
2023-05-06T04:57:48.511Z,98.21
2023-05-06T05:00:18.184Z,98.27
2023-05-06T05:02:47.112Z,98.26
2023-05-06T05:05:17.429Z,98.31
2023-05-06T05:07:45.734Z,98.57
2023-05-06T05:10:14.331Z,98.50
2023-05-06T05:12:43.863Z,98.84
2023-05-06T05:15:13.147Z,98.79
2023-05-06T05:17:41.746Z,98.70
2023-05-06T05:20:11.298Z,98.77
2023-05-06T05:22:41.054Z,99.38
2023-05-06T05:25:10.201Z,99.00
2023-05-06T05:27:38.931Z,98.55
2023-05-06T05:30:09.643Z,98.91
2023-05-06T05:32:39.459Z,98.66
2023-05-06T05:35:10.317Z,98.69
2023-05-06T05:37:40.450Z,98.21
2023-05-06T05:40:10.637Z,97.86
2023-05-06T05:42:39.687Z,97.93
2023-05-06T05:45:10.957Z,98.50
2023-05-06T05:47:39.597Z,98.19
2023-05-06T05:50:09.992Z,98.08
2023-05-06T05:52:38.355Z,98.03
2023-05-06T05:55:10.853Z,98.40
2023-05-06T05:57:39.496Z,98.20
2023-05-06T06:00:13.806Z,97.62
2023-05-06T06:02:42.403Z,97.45
2023-05-06T06:05:11.476Z,97.43
2023-05-06T06:07:40.023Z,97.40
2023-05-06T06:10:10.791Z,97.14
2023-05-06T06:12:39.584Z,97.60
2023-05-06T06:15:16.917Z,97.29
2023-05-06T06:17:45.404Z,96.88
2023-05-06T06:20:15.256Z,97.33
2023-05-06T06:22:43.684Z,96.83
2023-05-06T06:25:13.749Z,96.38
2023-05-06T06:27:42.188Z,96.77
2023-05-06T06:30:14.307Z,96.35
2023-05-06T06:32:49.945Z,96.24
2023-05-06T06:35:20.195Z,96.20
2023-05-06T06:37:48.905Z,95.78
2023-05-06T06:40:19.013Z,96.20
2023-05-06T06:42:48.013Z,96.05
2023-05-06T06:45:16.932Z,95.70
2023-05-06T06:47:45.489Z,95.85
2023-05-06T06:50:14.336Z,95.37
2023-05-06T06:52:42.672Z,95.37
2023-05-06T06:55:12.144Z,95.25
2023-05-06T06:57:42.200Z,95.25
2023-05-06T07:00:12.666Z,94.59
2023-05-06T07:02:41.214Z,94.75
2023-05-06T07:05:11.012Z,94.59
2023-05-06T07:07:39.480Z,94.48
2023-05-06T07:10:10.019Z,94.95
2023-05-06T07:12:38.476Z,94.68
2023-05-06T07:15:11.555Z,94.33
2023-05-06T07:17:40.103Z,94.16
2023-05-06T07:20:11.919Z,94.17
2023-05-06T07:22:41.358Z,93.76
2023-05-06T07:25:11.139Z,93.39
2023-05-06T07:27:40.041Z,93.42
2023-05-06T07:30:11.302Z,93.15
2023-05-06T07:32:41.157Z,93.33
2023-05-06T07:35:10.917Z,93.21
2023-05-06T07:37:39.488Z,92.76
2023-05-06T07:40:09.808Z,92.72
2023-05-06T07:42:38.100Z,92.70
2023-05-06T07:45:08.212Z,92.74
2023-05-06T07:47:38.057Z,92.76
2023-05-06T07:50:07.467Z,92.35
2023-05-06T07:52:35.835Z,92.41
2023-05-06T07:55:05.100Z,91.87
2023-05-06T07:57:33.448Z,91.71
2023-05-06T08:00:01.901Z,91.48
2023-05-06T08:02:30.283Z,91.09
2023-05-06T08:05:00.372Z,91.10
2023-05-06T08:07:28.797Z,91.10
2023-05-06T08:10:00.540Z,90.46
2023-05-06T08:12:28.888Z,90.02
2023-05-06T08:14:57.656Z,89.87
2023-05-06T08:17:26.504Z,89.39
2023-05-06T08:19:55.977Z,89.18
2023-05-06T08:22:26.038Z,89.45
2023-05-06T08:24:54.956Z,89.20
2023-05-06T08:27:23.597Z,88.85
2023-05-06T08:29:52.700Z,88.83
2023-05-06T08:32:21.200Z,88.71
2023-05-06T08:34:49.988Z,88.80
2023-05-06T08:37:18.515Z,89.14
2023-05-06T08:39:49.238Z,89.16
2023-05-06T08:42:17.976Z,89.05
2023-05-06T08:44:47.215Z,89.18
2023-05-06T08:47:15.732Z,89.22
2023-05-06T08:49:46.235Z,89.37
2023-05-06T08:52:15.332Z,89.16
2023-05-06T08:54:46.052Z,89.10
2023-05-06T08:57:16.293Z,88.47
2023-05-06T08:59:45.161Z,88.49
2023-05-06T09:02:14.018Z,88.00
2023-05-06T09:04:43.016Z,87.10
2023-05-06T09:07:11.481Z,87.02
2023-05-06T09:09:39.938Z,86.97
2023-05-06T09:12:11.775Z,86.79
2023-05-06T09:14:41.997Z,86.98
2023-05-06T09:17:24.139Z,86.67
2023-05-06T09:19:53.950Z,86.17
2023-05-06T09:22:23.831Z,85.77
2023-05-06T09:24:56.944Z,85.81
2023-05-06T09:27:26.556Z,85.62
2023-05-06T09:30:05.987Z,85.11
2023-05-06T09:32:36.811Z,84.59
2023-05-06T09:35:09.384Z,83.96
2023-05-06T09:37:37.952Z,83.46
2023-05-06T09:40:09.380Z,82.56
2023-05-06T09:42:37.989Z,82.33
2023-05-06T09:45:11.817Z,81.10
2023-05-06T09:47:40.942Z,80.03
2023-05-06T09:50:11.711Z,80.48
2023-05-06T09:52:40.112Z,80.32
2023-05-06T09:55:10.385Z,79.14
2023-05-06T09:57:39.129Z,77.81
2023-05-06T10:00:12.086Z,77.49
2023-05-06T10:02:42.702Z,77.27
2023-05-06T10:05:14.005Z,74.81
2023-05-06T10:07:43.098Z,72.95
2023-05-06T10:10:13.514Z,71.40
2023-05-06T10:12:42.082Z,71.47
2023-05-06T10:15:12.788Z,70.57
2023-05-06T10:17:42.497Z,68.40
2023-05-06T10:20:14.941Z,66.99
2023-05-06T10:22:57.364Z,66.33
2023-05-06T10:25:36.560Z,65.34
2023-05-06T10:28:09.222Z,63.49
2023-05-06T10:30:46.513Z,63.58
2023-05-06T10:33:17.022Z,63.66
2023-05-06T10:35:53.626Z,61.51
2023-05-06T10:38:28.052Z,61.39
2023-05-06T10:40:57.138Z,60.37
2023-05-06T10:43:29.409Z,59.69
2023-05-06T10:46:09.199Z,59.42
2023-05-06T10:48:41.174Z,58.67
2023-05-06T10:51:27.401Z,59.95
2023-05-06T10:54:05.534Z,59.12
2023-05-06T10:56:36.452Z,59.56
2023-05-06T10:59:09.092Z,57.38
2023-05-06T11:01:41.460Z,56.78
2023-05-06T11:04:12.365Z,57.65
2023-05-06T11:06:44.763Z,57.73
2023-05-06T11:09:21.338Z,58.61
2023-05-06T11:12:02.278Z,58.66
2023-05-06T11:14:32.993Z,59.29
2023-05-06T11:17:06.851Z,60.41
2023-05-06T11:19:37.359Z,60.69
2023-05-06T11:22:07.592Z,60.33
2023-05-06T11:24:42.196Z,60.77
2023-05-06T11:27:12.619Z,60.34
2023-05-06T11:29:41.034Z,60.95
2023-05-06T11:32:25.377Z,60.96
2023-05-06T11:34:58.269Z,59.66
2023-05-06T11:37:28.482Z,59.69
2023-05-06T11:39:57.577Z,59.65
2023-05-06T11:42:28.559Z,59.50
2023-05-06T11:45:03.182Z,59.30
2023-05-06T11:47:32.943Z,58.99
2023-05-06T11:50:07.534Z,57.87
2023-05-06T11:52:37.347Z,55.77
2023-05-06T11:55:11.105Z,54.92
2023-05-06T11:57:46.375Z,54.94
2023-05-06T12:00:16.424Z,54.75
2023-05-06T12:02:46.265Z,56.20
2023-05-06T12:05:14.966Z,56.44
2023-05-06T12:07:46.175Z,56.82
2023-05-06T12:10:17.166Z,57.00
2023-05-06T12:12:46.029Z,56.73
2023-05-06T12:15:14.502Z,56.74
2023-05-06T12:17:43.217Z,57.41
2023-05-06T12:20:16.768Z,57.92
2023-05-06T12:22:45.375Z,58.04
2023-05-06T12:25:17.977Z,58.22
2023-05-06T12:27:46.831Z,58.51
2023-05-06T12:30:15.692Z,59.64
2023-05-06T12:32:59.944Z,59.91
2023-05-06T12:35:33.188Z,61.01
2023-05-06T12:38:11.693Z,61.41
2023-05-06T12:40:41.496Z,62.03
2023-05-06T12:43:13.479Z,62.67
2023-05-06T12:45:42.303Z,63.17
2023-05-06T12:48:18.026Z,63.25
2023-05-06T12:50:48.181Z,63.78
2023-05-06T12:53:33.809Z,64.09
2023-05-06T12:56:02.289Z,65.07
2023-05-06T12:58:37.356Z,65.31
2023-05-06T13:01:07.657Z,65.91
2023-05-06T13:03:38.607Z,65.79
2023-05-06T13:06:09.128Z,65.67
2023-05-06T13:08:37.937Z,65.69
2023-05-06T13:11:08.322Z,66.20
2023-05-06T13:13:37.055Z,66.02
2023-05-06T13:16:06.397Z,66.20
2023-05-06T13:18:36.040Z,66.03
2023-05-06T13:21:04.986Z,66.20
2023-05-06T13:23:36.699Z,66.45
2023-05-06T13:26:06.168Z,67.59
2023-05-06T13:28:36.663Z,67.89
2023-05-06T13:31:05.903Z,68.42
2023-05-06T13:33:34.705Z,69.17
2023-05-06T13:36:05.257Z,69.69
2023-05-06T13:38:35.409Z,69.72
2023-05-06T13:41:03.836Z,70.48
2023-05-06T13:43:32.144Z,70.60
2023-05-06T13:46:00.568Z,70.48
2023-05-06T13:48:29.033Z,70.43
2023-05-06T13:50:58.897Z,70.99
2023-05-06T13:53:28.047Z,72.04
2023-05-06T13:55:59.564Z,73.79
2023-05-06T13:58:28.875Z,76.21
2023-05-06T14:00:58.183Z,77.32
2023-05-06T14:03:27.880Z,78.24
2023-05-06T14:05:56.759Z,79.20
2023-05-06T14:08:26.423Z,80.23
2023-05-06T14:10:55.492Z,81.09
2023-05-06T14:13:26.682Z,81.36
2023-05-06T14:15:56.720Z,81.37
2023-05-06T14:18:26.611Z,81.43
2023-05-06T14:20:55.449Z,81.66
2023-05-06T14:23:25.256Z,82.43
2023-05-06T14:25:56.554Z,82.62
2023-05-06T14:28:27.328Z,83.59
2023-05-06T14:30:56.607Z,83.55
2023-05-06T14:33:24.943Z,84.00
2023-05-06T14:35:53.649Z,84.60
2023-05-06T14:38:22.892Z,85.16
2023-05-06T14:40:52.630Z,85.08
2023-05-06T14:43:21.243Z,85.84
2023-05-06T14:45:51.307Z,85.81
2023-05-06T14:48:19.836Z,86.11
2023-05-06T14:50:55.067Z,87.09
2023-05-06T14:53:23.668Z,87.40
2023-05-06T14:55:52.644Z,87.27
2023-05-06T14:58:21.609Z,87.43
2023-05-06T15:00:51.539Z,87.65
2023-05-06T15:03:20.260Z,87.81
2023-05-06T15:05:51.111Z,88.51
2023-05-06T15:08:22.327Z,88.77
2023-05-06T15:10:51.388Z,89.29
2023-05-06T15:13:21.852Z,89.16
2023-05-06T15:15:51.598Z,89.25
2023-05-06T15:18:20.141Z,89.26
2023-05-06T15:20:48.666Z,89.92
2023-05-06T15:23:17.346Z,90.08
2023-05-06T15:25:45.726Z,90.52
2023-05-06T15:28:14.763Z,90.54
2023-05-06T15:30:43.119Z,90.54
2023-05-06T15:33:12.792Z,90.93
2023-05-06T15:35:42.589Z,91.21
2023-05-06T15:38:11.107Z,91.15
2023-05-06T15:40:41.178Z,91.32
2023-05-06T15:43:09.814Z,91.65
2023-05-06T15:45:39.167Z,91.51
2023-05-06T15:48:09.315Z,91.46
2023-05-06T15:50:39.694Z,91.78
2023-05-06T15:53:08.310Z,92.22
2023-05-06T15:55:45.221Z,92.32
2023-05-06T15:58:17.789Z,92.27
2023-05-06T16:00:46.156Z,92.49
2023-05-06T16:03:14.801Z,92.55
2023-05-06T16:05:44.812Z,92.46
2023-05-06T16:08:13.161Z,92.96
2023-05-06T16:10:43.081Z,92.88
2023-05-06T16:13:11.545Z,92.94
2023-05-06T16:15:40.156Z,92.83
2023-05-06T16:18:08.711Z,93.18
2023-05-06T16:20:37.455Z,93.17
2023-05-06T16:23:07.389Z,93.39
2023-05-06T16:25:37.807Z,93.32
2023-05-06T16:28:06.749Z,93.07
2023-05-06T16:30:35.076Z,93.09
2023-05-06T16:33:04.140Z,93.24
2023-05-06T16:35:33.641Z,93.12
2023-05-06T16:38:01.986Z,92.88
2023-05-06T16:40:32.192Z,92.50
2023-05-06T16:43:01.218Z,92.09
2023-05-06T16:45:29.667Z,91.88
2023-05-06T16:47:58.269Z,91.51
2023-05-06T16:50:28.273Z,90.69
2023-05-06T16:52:56.591Z,88.61
2023-05-06T16:55:26.715Z,86.71
2023-05-06T16:58:00.502Z,84.84
2023-05-06T17:00:29.973Z,83.27
2023-05-06T17:02:58.564Z,81.72
2023-05-06T17:05:31.034Z,80.16
2023-05-06T17:07:59.740Z,78.87
2023-05-06T17:10:32.757Z,77.53
2023-05-06T17:13:02.881Z,78.26
2023-05-06T17:15:31.448Z,78.33
2023-05-06T17:18:00.029Z,78.34
2023-05-06T17:20:28.709Z,78.70
2023-05-06T17:22:57.739Z,77.86
2023-05-06T17:25:26.459Z,77.09
2023-05-06T17:27:55.292Z,76.02
2023-05-06T17:30:25.350Z,74.14
2023-05-06T17:32:53.605Z,73.40
2023-05-06T17:35:22.114Z,72.91
2023-05-06T17:37:51.568Z,72.10
2023-05-06T17:40:20.290Z,70.94
2023-05-06T17:42:49.053Z,70.94
2023-05-06T17:45:17.632Z,71.80
2023-05-06T17:47:47.582Z,72.35
2023-05-06T17:50:16.211Z,72.85
2023-05-06T17:52:46.329Z,72.82
2023-05-06T17:55:17.364Z,73.55
2023-05-06T17:57:46.279Z,73.68
2023-05-06T18:00:16.886Z,74.25
2023-05-06T18:02:47.513Z,75.42
2023-05-06T18:05:15.948Z,75.53
2023-05-06T18:07:44.360Z,74.45
2023-05-06T18:10:13.048Z,74.38
2023-05-06T18:12:41.613Z,74.55
2023-05-06T18:15:11.702Z,75.26
2023-05-06T18:17:40.650Z,76.20
2023-05-06T18:20:13.226Z,77.06
2023-05-06T18:22:43.011Z,77.83
2023-05-06T18:25:12.017Z,78.31
2023-05-06T18:27:40.801Z,79.00
2023-05-06T18:30:10.208Z,79.36
2023-05-06T18:32:38.572Z,80.05
2023-05-06T18:35:08.340Z,80.61
2023-05-06T18:37:38.669Z,80.91
2023-05-06T18:40:09.911Z,81.53
2023-05-06T18:42:38.541Z,81.85
2023-05-06T18:45:09.136Z,82.45
2023-05-06T18:47:40.177Z,82.82
2023-05-06T18:50:10.461Z,83.31
2023-05-06T18:52:40.260Z,83.73
2023-05-06T18:55:10.053Z,83.84
2023-05-06T18:57:38.698Z,84.57
2023-05-06T19:00:09.028Z,84.75
2023-05-06T19:02:37.988Z,85.24
2023-05-06T19:05:08.307Z,85.58
2023-05-06T19:07:36.844Z,85.88
2023-05-06T19:10:11.564Z,86.24
2023-05-06T19:12:40.265Z,86.72
2023-05-06T19:15:12.331Z,86.78
2023-05-06T19:17:41.365Z,86.87
2023-05-06T19:20:11.464Z,87.07
2023-05-06T19:22:39.866Z,87.67
2023-05-06T19:25:11.424Z,87.87
2023-05-06T19:27:40.009Z,88.19
2023-05-06T19:30:10.942Z,88.75
2023-05-06T19:32:41.377Z,88.62
2023-05-06T19:35:11.283Z,88.99
2023-05-06T19:37:39.884Z,89.14
2023-05-06T19:40:11.305Z,89.77
2023-05-06T19:42:39.693Z,89.67
2023-05-06T19:45:08.964Z,90.07
2023-05-06T19:47:37.877Z,90.63
2023-05-06T19:50:08.344Z,90.70
2023-05-06T19:52:36.953Z,90.30
2023-05-06T19:55:06.081Z,91.02
2023-05-06T19:57:37.077Z,91.22
2023-05-06T20:00:10.714Z,91.28
2023-05-06T20:02:42.763Z,91.38
2023-05-06T20:05:12.065Z,91.64
2023-05-06T20:07:41.308Z,91.55
2023-05-06T20:10:14.319Z,91.60
2023-05-06T20:12:44.110Z,92.09
2023-05-06T20:15:12.850Z,91.93
2023-05-06T20:17:41.286Z,91.73
2023-05-06T20:20:11.518Z,92.59
2023-05-06T20:22:40.885Z,92.07
2023-05-06T20:25:11.590Z,92.14
2023-05-06T20:27:40.312Z,92.64
2023-05-06T20:30:11.309Z,92.27
2023-05-06T20:32:41.557Z,93.21
2023-05-06T20:35:11.274Z,92.65
2023-05-06T20:37:41.256Z,92.71
2023-05-06T20:40:11.528Z,93.00
2023-05-06T20:42:40.238Z,92.87
2023-05-06T20:45:11.442Z,93.45
2023-05-06T20:47:40.136Z,93.33
2023-05-06T20:50:16.411Z,93.02
2023-05-06T20:52:46.128Z,93.67
2023-05-06T20:55:16.132Z,93.42
2023-05-06T20:57:45.105Z,93.70
2023-05-06T21:00:15.857Z,93.42
2023-05-06T21:02:44.541Z,93.08
2023-05-06T21:05:13.505Z,93.93
2023-05-06T21:07:42.263Z,93.90
2023-05-06T21:10:12.048Z,93.29
2023-05-06T21:12:41.076Z,93.56
2023-05-06T21:15:12.050Z,93.38
2023-05-06T21:17:41.996Z,94.01
2023-05-06T21:20:11.874Z,93.70
2023-05-06T21:22:40.301Z,94.18
2023-05-06T21:25:10.448Z,93.97
2023-05-06T21:27:38.966Z,93.83
2023-05-06T21:30:10.580Z,93.97
2023-05-06T21:32:39.286Z,94.28
2023-05-06T21:35:10.547Z,93.67
2023-05-06T21:37:39.367Z,93.66
2023-05-06T21:40:10.368Z,93.83
2023-05-06T21:42:38.786Z,94.26
2023-05-06T21:45:08.831Z,93.70
2023-05-06T21:47:37.860Z,94.47
2023-05-06T21:50:10.616Z,94.14
2023-05-06T21:52:39.726Z,93.75
2023-05-06T21:55:09.901Z,94.04
2023-05-06T21:57:38.906Z,94.13
2023-05-06T22:00:12.260Z,94.16
2023-05-06T22:02:41.633Z,93.77
2023-05-06T22:05:12.176Z,93.59
2023-05-06T22:07:41.578Z,93.47
2023-05-06T22:10:10.923Z,93.45
2023-05-06T22:12:39.519Z,93.96
2023-05-06T22:15:09.498Z,93.27
2023-05-06T22:17:38.738Z,93.55
2023-05-06T22:20:12.051Z,93.37
2023-05-06T22:22:41.392Z,93.87
2023-05-06T22:25:11.419Z,93.27
2023-05-06T22:27:40.470Z,93.03
2023-05-06T22:30:11.350Z,93.34
2023-05-06T22:32:39.704Z,93.47
2023-05-06T22:35:11.389Z,93.54
2023-05-06T22:37:39.928Z,93.45
2023-05-06T22:40:12.825Z,93.34
2023-05-06T22:42:41.147Z,92.72
2023-05-06T22:45:11.675Z,92.66
2023-05-06T22:47:40.913Z,92.80
2023-05-06T22:50:12.820Z,93.16
2023-05-06T22:52:41.238Z,93.07
2023-05-06T22:55:11.043Z,92.88
2023-05-06T22:57:39.796Z,92.92
2023-05-06T23:00:12.699Z,92.72
2023-05-06T23:02:41.430Z,93.17
2023-05-06T23:05:12.032Z,93.10
2023-05-06T23:07:40.740Z,92.74
2023-05-06T23:10:10.811Z,93.22
2023-05-06T23:12:39.927Z,93.16
2023-05-06T23:15:09.577Z,93.16
2023-05-06T23:17:38.271Z,93.38
2023-05-06T23:20:08.346Z,93.07
2023-05-06T23:22:46.605Z,93.51
2023-05-06T23:25:20.730Z,93.51
2023-05-06T23:27:49.112Z,93.23
2023-05-06T23:30:17.551Z,93.43
2023-05-06T23:32:46.003Z,93.52
2023-05-06T23:35:14.400Z,93.10
2023-05-06T23:37:44.270Z,93.35
2023-05-06T23:40:14.933Z,93.02
2023-05-06T23:42:43.345Z,93.42
2023-05-06T23:45:12.394Z,92.82
2023-05-06T23:47:41.104Z,93.30
2023-05-06T23:50:10.346Z,93.48
2023-05-06T23:52:39.337Z,93.51
2023-05-06T23:55:10.520Z,92.94
2023-05-06T23:57:39.231Z,93.27
